Autopride — CQQE — position and weather

sailwx.info

Track history (hours):
 
Tides and Currents Weather Stations Pressure Air Temp Water Temp Dewpoint Dewpoint Depression Visibility Wind Speed Wind Dir Waves Ship Positions

Autopride

Last reported at 2016-Sep-29 08:33 UTC. Time now 2016-Sep-29 13:32 UTC.
Position N 59°53' E 010°46'.

Length 125 m; draft 5.8 m.

Type: Cargo ship. MMSI: 255801560.

Date/timePositionNaut miles runAvg speedWind from/ knotsBaromVisibWave heightAir tempDewpointWater temp
2016-Sep-29 08:33N 59°53' E 010°46'0 0.0
2016-Sep-29 07:33N 59°53' E 010°46'47 6.8
2016-Sep-29 00:33N 59°06' E 010°38'24215.1
2016-Sep-28 08:34N 55°29' E 007°21'8216.4
2016-Sep-28 03:33N 54°07' E 007°33'1616.4
2016-Sep-28 02:33N 53°53' E 007°49'1716.6
2016-Sep-28 01:33N 53°45' E 008°13'17 8.1
2016-Sep-27 23:31N 53°34' E 008°34'0 0.0
2016-Sep-27 19:31N 53°34' E 008°34'0 0.1
2016-Sep-27 14:33N 53°34' E 008°34'2 2.4
2016-Sep-27 13:33N 53°35' E 008°31'4414.8
2016-Sep-27 10:33N 54°03' E 007°33'24916.6
2016-Sep-26 19:32N 58°04' E 009°24'7017.7
2016-Sep-26 15:33N 59°04' E 010°35'3316.5
2016-Sep-26 13:33N 59°37' E 010°37'17 7.8
2016-Sep-26 11:26N 59°53' E 010°46'0 0.0
2016-Sep-26 08:29N 59°53' E 010°46'10 1.7
2016-Sep-26 02:33N 59°45' E 010°34'1312.6
2016-Sep-26 01:33N 59°33' E 010°36'1918.7
2016-Sep-26 00:33N 59°14' E 010°38'3210.8
2016-Sep-25 21:33N 58°44' E 010°16'5210.2
2016-Sep-25 16:27N 58°00' E 009°20'10 9.9
2016-Sep-25 15:29N 57°52' E 009°10'15510.4
2016-Sep-25 00:33N 55°29' E 007°23'2210.8
2016-Sep-24 22:33N 55°08' E 007°25'1110.7
2016-Sep-24 21:34N 54°57' E 007°26'2211.1
2016-Sep-24 19:33N 54°35' E 007°29'1111.4
2016-Sep-24 18:33N 54°24' E 007°30'1111.1
2016-Sep-24 17:33N 54°13' E 007°32'1110.7
2016-Sep-24 16:33N 54°02' E 007°37'2110.4
2016-Sep-24 14:33N 53°50' E 008°06'2311.6
2016-Sep-24 12:33N 53°33' E 008°34'1 0.3
2016-Sep-24 10:33N 53°34' E 008°34'0 0.0
2016-Sep-24 09:33N 53°34' E 008°34'0 0.0
2016-Sep-24 03:32N 53°34' E 008°34'0 0.0
2016-Sep-24 02:33N 53°34' E 008°34'0 0.0
2016-Sep-24 01:32N 53°34' E 008°34'0 0.4
2016-Sep-24 00:33N 53°34' E 008°34'45 9.0
2016-Sep-23 19:33N 54°02' E 007°34'15 7.4
2016-Sep-23 17:33N 54°16' E 007°26'1010.0
2016-Sep-23 16:33N 54°26' E 007°26'1110.6
2016-Sep-23 15:33N 54°36' E 007°25'2211.2
2016-Sep-23 13:33N 54°59' E 007°24'4711.7
2016-Sep-23 09:33N 55°45' E 007°26'194 9.2
2016-Sep-22 12:31N 58°01' E 011°42'18 2.2
2016-Sep-22 04:33N 58°07' E 011°11'1211.6
2016-Sep-22 03:33N 58°18' E 011°04'3511.7
2016-Sep-22 00:34N 58°51' E 010°40'1212.0
2016-Sep-21 23:34N 59°02' E 010°34'1514.9
2016-Sep-21 22:33N 59°17' E 010°36'70 5.3
2016-Sep-21 09:24N 58°14' E 009°38'1617.5
2016-Sep-21 08:28N 58°01' E 009°21'25216.9
2016-Sep-20 17:33N 53°54' E 007°45'3611.9
2016-Sep-20 14:33N 53°34' E 008°34'0 0.0
2016-Sep-20 13:33N 53°34' E 008°34'0 0.0
2016-Sep-20 10:33N 53°34' E 008°34'0 0.0
2016-Sep-20 08:33N 53°34' E 008°34'0 0.0
2016-Sep-20 07:33N 53°34' E 008°34'0 0.0
2016-Sep-20 06:33N 53°34' E 008°34'0 0.0
2016-Sep-20 02:32N 53°34' E 008°34'0 0.0
2016-Sep-19 23:32N 53°34' E 008°34'7 1.9
2016-Sep-19 19:33N 53°39' E 008°25'1615.6
2016-Sep-19 18:33N 53°50' E 008°05'2411.8
2016-Sep-19 16:33N 53°53' E 007°26'17 8.5
2016-Sep-19 14:33N 53°49' E 006°57'7 7.2
2016-Sep-19 13:33N 53°48' E 006°46'6 6.4
2016-Sep-19 12:33N 53°46' E 006°35'7 7.0
2016-Sep-19 11:33N 53°45' E 006°23'15 7.7
2016-Sep-19 09:33N 53°40' E 005°59'  
Track history (hours):
 
Tides and Currents Weather Stations Pressure Air Temp Water Temp Dewpoint Dewpoint Depression Visibility Wind Speed Wind Dir Waves Ship Positions

Autopride

Last reported at 2016-Sep-29 08:33 UTC. Time now 2016-Sep-29 13:32 UTC.
Position N 59°53' E 010°46'.

Length 125 m; draft 5.8 m.

Type: Cargo ship. MMSI: 255801560.

Date/timePositionNaut miles runAvg speedWind from/ knotsBaromVisibWave heightAir tempDewpointWater temp
2016-Sep-29 08:33N 59°53' E 010°46'0 0.0
2016-Sep-29 07:33N 59°53' E 010°46'47 6.8
2016-Sep-29 00:33N 59°06' E 010°38'24215.1
2016-Sep-28 08:34N 55°29' E 007°21'8216.4
2016-Sep-28 03:33N 54°07' E 007°33'1616.4
2016-Sep-28 02:33N 53°53' E 007°49'1716.6
2016-Sep-28 01:33N 53°45' E 008°13'17 8.1
2016-Sep-27 23:31N 53°34' E 008°34'0 0.0
2016-Sep-27 19:31N 53°34' E 008°34'0 0.1
2016-Sep-27 14:33N 53°34' E 008°34'2 2.4
2016-Sep-27 13:33N 53°35' E 008°31'4414.8
2016-Sep-27 10:33N 54°03' E 007°33'24916.6
2016-Sep-26 19:32N 58°04' E 009°24'7017.7
2016-Sep-26 15:33N 59°04' E 010°35'3316.5
2016-Sep-26 13:33N 59°37' E 010°37'17 7.8
2016-Sep-26 11:26N 59°53' E 010°46'0 0.0
2016-Sep-26 08:29N 59°53' E 010°46'10 1.7
2016-Sep-26 02:33N 59°45' E 010°34'1312.6
2016-Sep-26 01:33N 59°33' E 010°36'1918.7
2016-Sep-26 00:33N 59°14' E 010°38'3210.8
2016-Sep-25 21:33N 58°44' E 010°16'5210.2
2016-Sep-25 16:27N 58°00' E 009°20'10 9.9
2016-Sep-25 15:29N 57°52' E 009°10'15510.4
2016-Sep-25 00:33N 55°29' E 007°23'2210.8
2016-Sep-24 22:33N 55°08' E 007°25'1110.7
2016-Sep-24 21:34N 54°57' E 007°26'2211.1
2016-Sep-24 19:33N 54°35' E 007°29'1111.4
2016-Sep-24 18:33N 54°24' E 007°30'1111.1
2016-Sep-24 17:33N 54°13' E 007°32'1110.7
2016-Sep-24 16:33N 54°02' E 007°37'2110.4
2016-Sep-24 14:33N 53°50' E 008°06'2311.6
2016-Sep-24 12:33N 53°33' E 008°34'1 0.3
2016-Sep-24 10:33N 53°34' E 008°34'0 0.0
2016-Sep-24 09:33N 53°34' E 008°34'0 0.0
2016-Sep-24 03:32N 53°34' E 008°34'0 0.0
2016-Sep-24 02:33N 53°34' E 008°34'0 0.0
2016-Sep-24 01:32N 53°34' E 008°34'0 0.4
2016-Sep-24 00:33N 53°34' E 008°34'45 9.0
2016-Sep-23 19:33N 54°02' E 007°34'15 7.4
2016-Sep-23 17:33N 54°16' E 007°26'1010.0
2016-Sep-23 16:33N 54°26' E 007°26'1110.6
2016-Sep-23 15:33N 54°36' E 007°25'2211.2
2016-Sep-23 13:33N 54°59' E 007°24'4711.7
2016-Sep-23 09:33N 55°45' E 007°26'194 9.2
2016-Sep-22 12:31N 58°01' E 011°42'18 2.2
2016-Sep-22 04:33N 58°07' E 011°11'1211.6
2016-Sep-22 03:33N 58°18' E 011°04'3511.7
2016-Sep-22 00:34N 58°51' E 010°40'1212.0
2016-Sep-21 23:34N 59°02' E 010°34'1514.9
2016-Sep-21 22:33N 59°17' E 010°36'70 5.3
2016-Sep-21 09:24N 58°14' E 009°38'1617.5
2016-Sep-21 08:28N 58°01' E 009°21'25216.9
2016-Sep-20 17:33N 53°54' E 007°45'3611.9
2016-Sep-20 14:33N 53°34' E 008°34'0 0.0
2016-Sep-20 13:33N 53°34' E 008°34'0 0.0
2016-Sep-20 10:33N 53°34' E 008°34'0 0.0
2016-Sep-20 08:33N 53°34' E 008°34'0 0.0
2016-Sep-20 07:33N 53°34' E 008°34'0 0.0
2016-Sep-20 06:33N 53°34' E 008°34'0 0.0
2016-Sep-20 02:32N 53°34' E 008°34'0 0.0
2016-Sep-19 23:32N 53°34' E 008°34'7 1.9
2016-Sep-19 19:33N 53°39' E 008°25'1615.6
2016-Sep-19 18:33N 53°50' E 008°05'2411.8
2016-Sep-19 16:33N 53°53' E 007°26'17 8.5
2016-Sep-19 14:33N 53°49' E 006°57'7 7.2
2016-Sep-19 13:33N 53°48' E 006°46'6 6.4
2016-Sep-19 12:33N 53°46' E 006°35'7 7.0
2016-Sep-19 11:33N 53°45' E 006°23'15 7.7
2016-Sep-19 09:33N 53°40' E 005°59'  

Dump ship's entire track history